Walkerton, Canada
Current Conditions -  °F | °C
As of 2:00 PM on Saturday 25 Oct 2014 (Local Time) from CYVV Reporting Station
Scattered Clouds Scattered Clouds  
Wind Chill: 59°   Ceiling: Unl
Heat Index: 59°   Visibility: 15mi
Dew Point: 50°   Wind: 13mph
Humidity: 72%   Direction: 270°W
Pressure: 29.61"   Gusts: 23mph
Location:  44.13°N, 81.15°W
Report Text: CYVV 251800Z 27011G20KT 240V300 15SM SCT012 15/10 A2961 RMK CF3SLP028
Loading
Personal Weather Stations






























Interactive Weather Map
Tropical Storm Tracking
New forecast layout! Learn more

10-Day Weather Forecast

Advertisements
Track Severe Weather on mobile